Time;durP1;ratioP1;P1;durP2;ratioP2;P2;SDS_P1;SDS_P2;PMS_P1;PMS_P2;Temp;Humidity;BMP_temperature;BMP_pressure;BME280_temperature;BME280_humidity;BME280_pressure;Samples;Min_cycle;Max_cycle;Signal;HPM_P1;HPM_P2
2023/07/22 00:01:31;;;;;;;9.23;6.30;;;14.00;99.90;;;;;;5053309;28;20440;-56
2023/07/22 00:03:59;;;;;;;9.20;7.27;;;14.00;99.90;;;;;;5053042;28;20823;-56
2023/07/22 00:06:27;;;;;;;8.87;7.80;;;14.00;99.90;;;;;;5053366;28;20471;-56
2023/07/22 00:08:54;;;;;;;8.70;7.07;;;13.90;99.90;;;;;;5053204;28;20457;-57
2023/07/22 00:11:21;;;;;;;10.23;7.07;;;13.90;99.90;;;;;;5053143;28;20449;-56
2023/07/22 00:13:48;;;;;;;8.40;6.70;;;13.90;99.90;;;;;;5052984;28;20493;-57
2023/07/22 00:16:15;;;;;;;9.43;6.37;;;13.90;99.90;;;;;;5053181;28;20498;-56
2023/07/22 00:18:42;;;;;;;11.97;6.80;;;13.90;99.90;;;;;;5053048;28;20543;-56
2023/07/22 00:21:10;;;;;;;8.53;6.33;;;13.90;99.90;;;;;;5052689;28;20503;-56
2023/07/22 00:23:37;;;;;;;8.53;6.37;;;13.90;99.90;;;;;;5053088;28;20441;-57
2023/07/22 00:26:04;;;;;;;8.93;6.57;;;13.90;99.90;;;;;;5052819;28;20844;-56
2023/07/22 00:28:30;;;;;;;12.43;6.60;;;13.80;99.90;;;;;;5056477;28;20478;-56
2023/07/22 00:30:58;;;;;;;9.23;6.53;;;13.90;99.90;;;;;;5057128;28;20455;-56
2023/07/22 00:33:24;;;;;;;9.60;6.50;;;13.80;99.90;;;;;;5057218;28;20447;-56
2023/07/22 00:35:51;;;;;;;12.83;7.00;;;13.80;99.90;;;;;;5057019;28;20983;-56
2023/07/22 00:38:20;;;;;;;7.47;5.83;;;13.80;99.90;;;;;;5057161;28;20506;-55
2023/07/22 00:40:47;;;;;;;8.27;6.20;;;13.80;99.90;;;;;;5057997;28;20456;-55
2023/07/22 00:43:14;;;;;;;7.63;6.03;;;13.80;99.90;;;;;;5056998;28;20974;-55
2023/07/22 00:45:40;;;;;;;13.30;6.63;;;13.80;99.90;;;;;;5057062;28;20467;-56
2023/07/22 00:48:09;;;;;;;9.60;5.93;;;13.80;99.90;;;;;;5057180;28;20448;-56
2023/07/22 00:50:37;;;;;;;7.40;5.23;;;13.80;99.90;;;;;;5056777;28;20968;-56
2023/07/22 00:53:04;;;;;;;7.20;5.77;;;13.70;99.90;;;;;;5056533;28;20983;-56
2023/07/22 00:55:35;;;;;;;7.97;5.83;;;13.70;99.90;;;;;;5056767;28;20474;-56
2023/07/22 00:58:02;;;;;;;8.30;5.90;;;13.60;99.90;;;;;;5056615;28;20460;-56
2023/07/22 01:00:29;;;;;;;6.43;5.50;;;13.60;99.90;;;;;;5058917;28;20440;-56
2023/07/22 01:02:55;;;;;;;9.47;6.00;;;13.60;99.90;;;;;;5059052;28;20447;-56
2023/07/22 01:05:22;;;;;;;10.30;5.80;;;13.60;99.90;;;;;;5056941;28;20457;-56
2023/07/22 01:07:49;;;;;;;6.57;5.40;;;13.60;99.90;;;;;;5056505;28;20440;-57
2023/07/22 01:10:16;;;;;;;8.07;6.67;;;13.50;99.90;;;;;;5056918;28;20569;-56
2023/07/22 01:12:45;;;;;;;7.83;5.00;;;13.50;99.90;;;;;;5057200;28;20448;-56
2023/07/22 01:15:12;;;;;;;7.80;5.80;;;13.50;99.90;;;;;;5056798;28;20450;-56
2023/07/22 01:17:39;;;;;;;9.33;6.00;;;13.50;99.90;;;;;;5056134;28;20483;-56
2023/07/22 01:20:09;;;;;;;7.43;5.60;;;13.50;99.90;;;;;;5056363;28;20983;-57
2023/07/22 01:22:37;;;;;;;7.73;6.17;;;13.50;99.90;;;;;;5056443;28;20934;-57
2023/07/22 01:25:07;;;;;;;8.70;5.67;;;13.50;99.90;;;;;;5056440;28;20451;-55
2023/07/22 01:27:34;;;;;;;6.83;5.47;;;13.40;99.90;;;;;;5056529;28;20477;-56
2023/07/22 01:30:02;;;;;;;7.63;5.90;;;13.40;99.90;;;;;;5056030;28;20444;-54
2023/07/22 01:32:29;;;;;;;7.07;6.37;;;13.40;99.90;;;;;;5056442;28;20498;-57
2023/07/22 01:34:56;;;;;;;9.33;5.80;;;13.30;99.90;;;;;;5056019;28;20450;-56
2023/07/22 01:37:22;;;;;;;6.67;5.93;;;13.30;99.90;;;;;;5055638;28;20483;-56
2023/07/22 01:39:50;;;;;;;9.17;5.10;;;13.30;99.90;;;;;;5054716;28;20945;-56
2023/07/22 01:42:18;;;;;;;11.50;6.60;;;13.30;99.90;;;;;;5055830;28;20454;-57
2023/07/22 01:44:45;;;;;;;6.07;5.43;;;13.30;99.90;;;;;;5055941;28;20479;-55
2023/07/22 01:47:12;;;;;;;8.40;5.80;;;13.30;99.90;;;;;;5055504;28;20992;-56
2023/07/22 01:49:39;;;;;;;6.77;5.47;;;13.20;99.90;;;;;;5055375;28;20921;-56
2023/07/22 01:52:06;;;;;;;9.80;6.33;;;13.20;99.90;;;;;;5055643;28;20477;-56
2023/07/22 01:54:33;;;;;;;7.20;5.80;;;13.20;99.90;;;;;;5055600;28;20872;-55
2023/07/22 01:57:00;;;;;;;11.67;5.60;;;13.20;99.90;;;;;;5055849;28;20602;-57
2023/07/22 01:59:28;;;;;;;6.60;5.13;;;13.20;99.90;;;;;;5055614;28;20514;-56
2023/07/22 02:01:55;;;;;;;6.60;5.57;;;13.10;99.90;;;;;;5056279;28;20598;-56
2023/07/22 02:04:22;;;;;;;7.00;5.80;;;13.10;99.90;;;;;;5055431;28;20451;-55
2023/07/22 02:06:49;;;;;;;8.73;6.27;;;13.10;99.90;;;;;;5055078;28;21001;-56
2023/07/22 02:09:16;;;;;;;6.70;5.13;;;13.10;99.90;;;;;;5055207;28;20440;-56
2023/07/22 02:11:42;;;;;;;8.17;5.23;;;13.10;99.90;;;;;;5055084;28;20504;-55
2023/07/22 02:14:09;;;;;;;8.57;4.43;;;13.10;99.90;;;;;;5055152;28;20453;-56
2023/07/22 02:16:38;;;;;;;5.40;4.80;;;13.00;99.90;;;;;;5055323;28;20483;-55
2023/07/22 02:19:05;;;;;;;8.27;6.00;;;13.00;99.90;;;;;;5054934;28;20455;-56
2023/07/22 02:21:32;;;;;;;7.23;5.60;;;13.00;99.90;;;;;;5055256;28;20456;-56
2023/07/22 02:23:59;;;;;;;7.73;4.80;;;12.90;99.90;;;;;;5054947;28;20483;-55
2023/07/22 02:26:26;;;;;;;7.53;5.53;;;12.90;99.90;;;;;;5054764;28;20475;-57
2023/07/22 02:28:52;;;;;;;8.97;5.13;;;12.90;99.90;;;;;;5054881;28;20440;-57
2023/07/22 02:31:19;;;;;;;8.30;4.60;;;12.90;99.90;;;;;;5054501;28;20948;-60
2023/07/22 02:33:50;;;;;;;6.70;5.63;;;12.80;99.90;;;;;;5054598;28;20456;-56
2023/07/22 02:36:17;;;;;;;8.20;6.00;;;12.80;99.90;;;;;;5054147;28;20897;-55
2023/07/22 02:38:43;;;;;;;9.70;5.50;;;12.80;99.90;;;;;;5054436;28;20487;-58
2023/07/22 02:41:10;;;;;;;8.60;5.87;;;12.80;99.90;;;;;;5054223;28;20454;-56
2023/07/22 02:43:37;;;;;;;7.93;4.87;;;12.80;99.90;;;;;;5054170;28;20535;-56
2023/07/22 02:46:07;;;;;;;6.20;4.37;;;12.70;99.90;;;;;;5054452;28;20474;-56
2023/07/22 02:48:34;;;;;;;10.20;5.00;;;12.70;99.90;;;;;;5054749;28;20449;-57
2023/07/22 02:51:05;;;;;;;10.53;6.23;;;12.70;99.90;;;;;;5053198;28;20970;-57
2023/07/22 02:53:32;;;;;;;10.00;5.37;;;12.70;99.90;;;;;;5054777;28;20487;-57
2023/07/22 02:55:59;;;;;;;7.93;5.53;;;12.70;99.90;;;;;;5054589;28;20469;-58
2023/07/22 02:58:26;;;;;;;6.97;4.87;;;12.70;99.90;;;;;;5054424;28;20482;-57
2023/07/22 03:00:53;;;;;;;7.67;5.13;;;12.80;99.90;;;;;;5054449;28;20470;-56
2023/07/22 03:03:20;;;;;;;9.10;4.90;;;12.80;99.90;;;;;;5054326;28;20448;-57
2023/07/22 03:05:47;;;;;;;8.60;5.63;;;12.80;99.90;;;;;;5054465;28;20471;-55
2023/07/22 03:08:15;;;;;;;7.30;4.73;;;12.80;99.90;;;;;;5054486;28;20542;-58
2023/07/22 03:10:43;;;;;;;7.83;5.40;;;12.80;99.90;;;;;;5054526;28;20479;-56
2023/07/22 03:13:10;;;;;;;6.43;5.70;;;12.80;99.90;;;;;;5054158;28;20491;-56
2023/07/22 03:15:37;;;;;;;7.37;5.27;;;12.80;99.90;;;;;;5054053;28;21008;-58
2023/07/22 03:18:04;;;;;;;10.30;5.60;;;12.80;99.90;;;;;;5054659;28;20469;-56
2023/07/22 03:20:31;;;;;;;10.77;5.50;;;12.70;99.90;;;;;;5054528;28;20451;-56
2023/07/22 03:22:59;;;;;;;6.70;5.13;;;12.70;99.90;;;;;;5054615;28;20446;-56
2023/07/22 03:25:27;;;;;;;6.90;4.93;;;12.70;99.90;;;;;;5054650;28;20552;-57
2023/07/22 03:27:53;;;;;;;7.83;4.97;;;12.70;99.90;;;;;;5054901;28;20814;-55
2023/07/22 03:30:23;;;;;;;8.70;5.50;;;12.80;99.90;;;;;;5054505;28;20453;-55
2023/07/22 03:32:51;;;;;;;9.10;5.40;;;12.80;99.90;;;;;;5054384;28;20460;-56
2023/07/22 03:35:18;;;;;;;11.23;5.50;;;12.80;99.90;;;;;;5054082;28;20870;-56
2023/07/22 03:37:44;;;;;;;10.90;6.10;;;12.80;99.90;;;;;;5054017;28;20474;-56
2023/07/22 03:40:17;;;;;;;7.93;4.90;;;12.70;99.90;;;;;;5053817;28;20448;-56
2023/07/22 03:42:45;;;;;;;8.73;5.63;;;12.80;99.90;;;;;;5054185;28;20435;-56
2023/07/22 03:45:12;;;;;;;8.80;5.50;;;12.80;99.90;;;;;;5053563;28;20449;-57
2023/07/22 03:47:41;;;;;;;9.43;5.97;;;12.80;99.90;;;;;;5053546;28;20819;-56
2023/07/22 03:50:08;;;;;;;8.43;5.70;;;12.80;99.90;;;;;;5053678;28;20498;-56
2023/07/22 03:52:35;;;;;;;9.43;6.13;;;12.80;99.90;;;;;;5054037;28;20445;-56
2023/07/22 03:55:02;;;;;;;8.87;5.73;;;12.80;99.90;;;;;;5053809;28;20443;-54
2023/07/22 03:57:29;;;;;;;8.50;5.37;;;12.90;99.90;;;;;;5053990;28;20561;-55
2023/07/22 03:59:58;;;;;;;12.70;6.30;;;12.90;99.90;;;;;;5054405;28;20448;-57
2023/07/22 04:02:25;;;;;;;9.20;6.20;;;12.90;99.90;;;;;;5053280;28;20450;-56
2023/07/22 04:04:54;;;;;;;10.03;5.60;;;13.00;99.90;;;;;;5052948;28;20823;-56
2023/07/22 04:07:21;;;;;;;11.30;5.37;;;13.00;99.90;;;;;;5053155;28;20838;-56
2023/07/22 04:11:59;;;;;;;8.77;6.40;;;13.20;99.90;;;;;;5091524;27;21060;-56
2023/07/22 04:14:26;;;;;;;13.67;6.47;;;13.50;99.90;;;;;;5091188;28;20443;-57
2023/07/22 04:16:52;;;;;;;8.80;5.30;;;13.80;99.90;;;;;;5090622;28;21084;-56
2023/07/22 04:19:19;;;;;;;10.07;6.27;;;14.20;99.90;;;;;;5090769;28;20454;-55
2023/07/22 04:21:46;;;;;;;8.80;5.80;;;14.60;99.90;;;;;;5090682;28;20442;-57
2023/07/22 04:24:13;;;;;;;8.67;6.50;;;14.90;99.90;;;;;;5090652;28;20452;-57
2023/07/22 04:26:41;;;;;;;9.10;5.20;;;15.20;99.90;;;;;;5090468;28;20550;-58
2023/07/22 04:29:09;;;;;;;5.90;5.10;;;15.50;99.90;;;;;;5091107;28;20451;-57
2023/07/22 04:31:36;;;;;;;7.53;4.83;;;15.80;99.90;;;;;;5090755;28;20830;-57
2023/07/22 04:34:03;;;;;;;7.17;4.90;;;16.10;99.90;;;;;;5090897;28;20443;-57
2023/07/22 04:36:29;;;;;;;8.20;6.20;;;16.30;99.90;;;;;;5091083;28;20471;-56
2023/07/22 04:38:56;;;;;;;7.80;5.60;;;16.50;99.90;;;;;;5090682;28;20455;-57
2023/07/22 04:41:23;;;;;;;6.80;5.13;;;16.70;99.90;;;;;;5090542;28;20443;-56
2023/07/22 04:43:51;;;;;;;7.97;5.63;;;16.90;99.90;;;;;;5090367;28;20439;-57
2023/07/22 04:46:19;;;;;;;12.27;4.90;;;17.00;99.90;;;;;;5090447;28;20966;-57
2023/07/22 04:48:46;;;;;;;8.13;4.63;;;17.10;99.90;;;;;;5091086;28;20445;-57
2023/07/22 04:51:13;;;;;;;7.97;5.07;;;17.00;99.80;;;;;;5090138;28;20484;-57
2023/07/22 04:53:39;;;;;;;7.80;5.40;;;16.80;99.50;;;;;;5090163;28;20449;-57
2023/07/22 04:56:06;;;;;;;8.40;5.80;;;16.60;99.40;;;;;;5090425;28;20487;-55
2023/07/22 04:58:33;;;;;;;7.97;5.23;;;16.40;99.50;;;;;;5090397;28;20463;-56
2023/07/22 05:01:00;;;;;;;8.03;4.30;;;16.20;99.40;;;;;;5090232;28;20444;-55
2023/07/22 05:03:28;;;;;;;10.13;5.63;;;16.00;99.60;;;;;;5091628;28;20445;-56
2023/07/22 05:05:54;;;;;;;8.00;5.47;;;15.80;99.90;;;;;;5090046;28;20503;-56
2023/07/22 05:08:20;;;;;;;9.07;6.03;;;15.80;99.90;;;;;;5090218;28;20448;-55
2023/07/22 05:10:47;;;;;;;10.13;5.57;;;15.80;99.90;;;;;;5090172;28;20231;-57
2023/07/22 05:13:14;;;;;;;10.87;5.90;;;15.80;99.90;;;;;;5090135;28;20441;-57
2023/07/22 05:15:41;;;;;;;8.87;6.07;;;15.90;99.90;;;;;;5089982;28;20468;-56
2023/07/22 05:18:08;;;;;;;8.27;5.63;;;15.90;99.90;;;;;;5090009;28;20455;-57
2023/07/22 05:20:36;;;;;;;7.97;5.50;;;15.90;99.90;;;;;;5090083;28;20443;-56
2023/07/22 05:23:03;;;;;;;8.43;5.33;;;16.10;99.80;;;;;;5078163;28;20499;-57
2023/07/22 05:25:29;;;;;;;7.17;4.70;;;16.10;99.40;;;;;;5076919;28;20937;-56
2023/07/22 05:27:56;;;;;;;8.43;5.37;;;16.20;98.90;;;;;;5076106;28;20953;-56
2023/07/22 05:30:23;;;;;;;10.47;5.70;;;16.10;98.70;;;;;;5075615;28;20474;-55
2023/07/22 05:32:52;;;;;;;10.77;5.00;;;16.10;98.80;;;;;;5075739;28;20449;-56
2023/07/22 05:35:19;;;;;;;9.40;5.70;;;16.10;98.90;;;;;;5075871;28;20445;-57
2023/07/22 05:37:47;;;;;;;5.97;5.20;;;16.10;98.80;;;;;;5075909;28;20447;-56
2023/07/22 05:40:14;;;;;;;9.90;5.40;;;16.10;98.70;;;;;;5075274;28;20981;-57
2023/07/22 05:42:42;;;;;;;7.00;4.70;;;16.20;98.60;;;;;;5076515;28;20456;-57
2023/07/22 05:45:13;;;;;;;6.20;5.20;;;16.20;98.40;;;;;;5075813;28;20440;-56
2023/07/22 05:47:40;;;;;;;9.43;4.80;;;16.10;98.40;;;;;;5075430;28;20429;-56
2023/07/22 05:50:08;;;;;;;7.93;5.17;;;16.10;98.40;;;;;;5075686;28;20445;-56
2023/07/22 05:52:34;;;;;;;8.97;6.10;;;16.10;98.50;;;;;;5076014;28;20476;-56
2023/07/22 05:55:03;;;;;;;7.50;5.20;;;16.10;98.60;;;;;;5075852;28;21123;-57
2023/07/22 05:57:29;;;;;;;6.50;4.80;;;16.10;98.40;;;;;;5075337;28;20465;-57
2023/07/22 05:59:56;;;;;;;8.60;5.13;;;16.00;98.20;;;;;;5075630;28;20470;-58
2023/07/22 06:02:23;;;;;;;7.77;5.73;;;16.10;98.60;;;;;;5075751;28;20451;-54
2023/07/22 06:04:50;;;;;;;8.10;5.37;;;16.20;98.50;;;;;;5075620;28;20460;-55
2023/07/22 06:07:16;;;;;;;11.27;5.47;;;16.30;98.30;;;;;;5075690;28;20465;-58
2023/07/22 06:09:43;;;;;;;7.00;5.00;;;16.50;98.00;;;;;;5075073;28;20450;-57
2023/07/22 06:12:11;;;;;;;6.23;5.20;;;16.50;97.40;;;;;;5075360;28;20465;-59
2023/07/22 06:14:38;;;;;;;8.37;4.90;;;16.60;97.30;;;;;;5074969;28;20442;-56
2023/07/22 06:17:05;;;;;;;6.63;4.93;;;16.60;97.00;;;;;;5075144;28;20466;-57
2023/07/22 06:19:32;;;;;;;6.57;4.63;;;16.70;97.10;;;;;;5074713;28;20461;-57
2023/07/22 06:21:58;;;;;;;6.60;5.10;;;16.70;96.60;;;;;;5075062;28;20472;-57
2023/07/22 06:24:25;;;;;;;7.83;5.10;;;16.80;96.30;;;;;;5074711;28;20473;-57
2023/07/22 06:26:52;;;;;;;6.50;4.77;;;16.80;95.80;;;;;;5074507;28;20469;-57
2023/07/22 06:29:20;;;;;;;7.03;5.20;;;16.90;96.00;;;;;;5074686;28;20450;-54
2023/07/22 06:31:47;;;;;;;7.67;5.30;;;17.00;95.50;;;;;;5074535;28;20480;-58
2023/07/22 06:34:14;;;;;;;11.63;5.30;;;17.10;95.00;;;;;;5073292;28;20441;-58
2023/07/22 06:36:40;;;;;;;7.33;5.53;;;17.20;94.90;;;;;;5074384;28;20523;-57
2023/07/22 06:39:07;;;;;;;6.57;5.23;;;17.30;94.50;;;;;;5074410;28;20457;-57
2023/07/22 06:41:34;;;;;;;10.50;5.57;;;17.50;94.00;;;;;;5074004;28;20507;-57
2023/07/22 06:44:01;;;;;;;7.60;4.80;;;17.60;93.20;;;;;;5074132;28;20458;-57
2023/07/22 06:46:29;;;;;;;6.00;4.70;;;17.60;92.90;;;;;;5074357;28;20474;-58
2023/07/22 06:48:55;;;;;;;8.00;5.50;;;17.60;92.70;;;;;;5073945;28;20480;-55
2023/07/22 06:51:22;;;;;;;10.27;5.60;;;17.60;92.50;;;;;;5074728;28;20478;-56
2023/07/22 06:53:49;;;;;;;6.60;5.40;;;17.60;92.40;;;;;;5074082;28;20447;-57
2023/07/22 06:56:16;;;;;;;6.70;5.43;;;17.60;92.40;;;;;;5073490;28;20980;-57
2023/07/22 06:58:42;;;;;;;10.27;5.73;;;17.80;92.20;;;;;;5073707;28;20443;-57
2023/07/22 07:01:09;;;;;;;10.70;5.60;;;18.00;91.40;;;;;;5074444;28;20464;-56
2023/07/22 07:03:37;;;;;;;10.00;5.80;;;18.10;91.00;;;;;;5073861;28;20441;-57
2023/07/22 07:06:04;;;;;;;7.17;4.93;;;18.30;90.20;;;;;;5073423;28;20466;-58
2023/07/22 07:08:31;;;;;;;9.60;5.50;;;18.40;89.50;;;;;;5073999;28;20466;-57
2023/07/22 07:11:01;;;;;;;7.77;5.53;;;18.40;88.30;;;;;;5073795;28;20581;-58
2023/07/22 07:13:27;;;;;;;6.73;4.87;;;18.20;87.10;;;;;;5074024;28;20450;-58
2023/07/22 07:15:55;;;;;;;7.60;5.20;;;18.10;87.10;;;;;;5073546;28;20466;-56
2023/07/22 07:18:22;;;;;;;7.27;6.10;;;18.00;87.00;;;;;;5073433;28;20540;-56
2023/07/22 07:20:51;;;;;;;7.90;5.20;;;18.00;87.10;;;;;;5073354;28;20446;-56
2023/07/22 07:23:18;;;;;;;7.80;5.73;;;18.10;86.80;;;;;;5073171;28;20458;-56
2023/07/22 07:25:44;;;;;;;9.43;5.40;;;18.20;86.10;;;;;;5072947;28;21063;-57
2023/07/22 07:28:14;;;;;;;6.73;5.43;;;18.20;85.20;;;;;;5073467;28;20533;-56
2023/07/22 07:30:40;;;;;;;8.13;5.40;;;18.30;84.70;;;;;;5073372;28;20501;-58
2023/07/22 07:33:07;;;;;;;6.60;5.70;;;18.40;83.40;;;;;;5073257;28;20450;-55
2023/07/22 07:35:34;;;;;;;10.40;5.03;;;18.30;82.80;;;;;;5073032;28;20901;-58
2023/07/22 07:38:03;;;;;;;9.07;5.00;;;18.30;82.30;;;;;;5073093;28;20447;-58
2023/07/22 07:40:31;;;;;;;6.27;4.87;;;18.30;82.20;;;;;;5073677;28;20447;-56
2023/07/22 07:42:58;;;;;;;6.37;5.03;;;18.30;82.00;;;;;;5073009;28;20447;-56
2023/07/22 07:45:25;;;;;;;6.53;4.80;;;18.60;81.40;;;;;;5072817;28;20537;-55
2023/07/22 07:47:52;;;;;;;8.07;5.20;;;18.80;79.70;;;;;;5073010;28;20478;-56
2023/07/22 07:50:19;;;;;;;8.83;6.07;;;19.10;78.80;;;;;;5072961;28;20442;-56
2023/07/22 07:52:45;;;;;;;7.30;5.63;;;19.30;77.10;;;;;;5072662;28;20856;-57
2023/07/22 07:55:14;;;;;;;7.60;6.20;;;19.40;75.70;;;;;;5072838;28;20455;-56
2023/07/22 07:57:40;;;;;;;8.17;5.63;;;19.50;73.90;;;;;;5072767;28;20814;-55
2023/07/22 08:00:09;;;;;;;11.33;6.40;;;19.30;73.50;;;;;;5072721;28;20546;-56
2023/07/22 08:02:36;;;;;;;6.33;5.20;;;19.10;73.90;;;;;;5073019;28;20954;-56
2023/07/22 08:05:03;;;;;;;9.57;6.50;;;19.10;74.10;;;;;;5072752;28;20478;-56
2023/07/22 08:07:30;;;;;;;7.23;5.33;;;19.10;74.00;;;;;;5072800;28;20510;-56
2023/07/22 08:09:58;;;;;;;7.23;5.60;;;19.10;73.70;;;;;;5072806;28;20467;-56
2023/07/22 08:12:26;;;;;;;7.03;5.47;;;19.10;73.40;;;;;;5072697;28;20479;-56
2023/07/22 08:14:54;;;;;;;9.07;5.87;;;19.10;73.00;;;;;;5072796;28;20480;-55
2023/07/22 08:17:21;;;;;;;9.20;6.17;;;19.00;72.90;;;;;;5084997;22;20531;-57
2023/07/22 08:19:47;;;;;;;7.90;5.60;;;18.90;72.90;;;;;;5053761;28;20478;-57
2023/07/22 08:22:14;;;;;;;7.57;5.97;;;18.90;73.20;;;;;;5053209;28;20439;-57
2023/07/22 08:24:41;;;;;;;8.40;5.13;;;19.00;73.40;;;;;;5053697;28;20451;-58
2023/07/22 08:27:08;;;;;;;10.60;5.63;;;19.10;72.90;;;;;;5053636;28;20448;-57
2023/07/22 08:29:37;;;;;;;9.10;5.53;;;19.20;72.60;;;;;;5053823;28;20436;-58
2023/07/22 08:32:05;;;;;;;5.47;4.63;;;19.40;71.90;;;;;;5054318;28;20484;-58
2023/07/22 08:34:31;;;;;;;6.83;5.07;;;19.60;70.70;;;;;;5054255;28;20440;-58
2023/07/22 08:36:58;;;;;;;7.83;5.13;;;19.80;69.30;;;;;;5054670;28;20527;-58
2023/07/22 08:39:25;;;;;;;6.97;5.50;;;20.10;68.30;;;;;;5053291;28;20490;-58
2023/07/22 08:41:53;;;;;;;11.00;5.30;;;20.40;67.30;;;;;;5053393;28;20436;-57
2023/07/22 08:44:21;;;;;;;7.30;5.30;;;20.60;66.40;;;;;;5053837;28;20825;-57
2023/07/22 08:46:52;;;;;;;6.50;4.83;;;20.90;65.10;;;;;;5054488;28;20451;-57
2023/07/22 08:49:20;;;;;;;8.53;6.43;;;21.20;64.00;;;;;;5054559;28;20478;-57
2023/07/22 08:51:47;;;;;;;7.90;5.63;;;21.30;62.90;;;;;;5054706;28;20506;-57
2023/07/22 08:54:15;;;;;;;11.80;6.70;;;21.40;62.20;;;;;;5054476;28;20453;-57
2023/07/22 08:56:43;;;;;;;7.80;6.73;;;21.30;61.50;;;;;;5054682;28;20451;-58
2023/07/22 08:59:10;;;;;;;8.27;7.10;;;21.10;61.30;;;;;;5058199;28;20496;-57
2023/07/22 09:01:39;;;;;;;9.60;7.10;;;20.90;61.80;;;;;;5058622;28;20472;-58
2023/07/22 09:04:09;;;;;;;7.63;6.50;;;20.80;62.20;;;;;;5057222;28;20444;-57
2023/07/22 09:06:36;;;;;;;10.17;6.27;;;20.70;62.00;;;;;;5058308;28;20518;-57
2023/07/22 09:09:07;;;;;;;9.60;7.03;;;20.40;62.20;;;;;;5058252;28;20482;-57
2023/07/22 09:11:35;;;;;;;6.90;6.13;;;20.40;63.10;;;;;;5057933;28;20464;-58
2023/07/22 09:14:03;;;;;;;8.67;7.13;;;20.60;63.30;;;;;;5057426;28;20467;-58
2023/07/22 09:16:31;;;;;;;9.23;7.23;;;20.80;63.20;;;;;;5057180;28;20999;-56
2023/07/22 09:18:59;;;;;;;9.83;8.00;;;21.10;62.90;;;;;;5056708;28;20476;-58
2023/07/22 09:21:27;;;;;;;7.43;6.73;;;21.50;62.10;;;;;;5057458;28;20454;-58
2023/07/22 09:23:54;;;;;;;6.97;6.27;;;21.80;61.20;;;;;;5057199;28;20490;-58
2023/07/22 09:26:22;;;;;;;7.13;6.43;;;21.90;60.70;;;;;;5057025;28;20535;-58
2023/07/22 09:28:53;;;;;;;7.80;6.60;;;21.80;60.50;;;;;;5057337;28;20463;-56
2023/07/22 09:31:21;;;;;;;7.97;6.67;;;21.80;60.10;;;;;;5056753;28;20429;-56
2023/07/22 09:33:48;;;;;;;8.37;6.20;;;21.60;59.10;;;;;;5056746;28;20440;-57
2023/07/22 09:36:15;;;;;;;11.50;7.07;;;21.60;59.20;;;;;;5056741;28;20807;-57
2023/07/22 09:38:43;;;;;;;7.80;6.80;;;21.80;58.60;;;;;;5057568;28;20468;-57
2023/07/22 09:41:10;;;;;;;7.90;7.10;;;22.20;58.10;;;;;;5057524;28;20447;-57
2023/07/22 09:43:39;;;;;;;8.97;7.47;;;22.30;57.20;;;;;;5057057;28;20972;-60
2023/07/22 09:46:10;;;;;;;7.10;6.17;;;22.40;56.80;;;;;;5056734;28;20452;-58
2023/07/22 09:48:45;;;;;;;8.93;7.00;;;22.60;56.30;;;;;;5056634;28;20460;-57
2023/07/22 09:51:16;;;;;;;8.07;6.87;;;22.80;55.70;;;;;;5056623;28;20498;-58
2023/07/22 09:53:47;;;;;;;7.53;6.17;;;22.80;54.80;;;;;;5057274;28;20813;-58
2023/07/22 09:56:14;;;;;;;7.80;7.00;;;22.60;54.50;;;;;;5057705;28;20446;-59
2023/07/22 09:58:41;;;;;;;8.87;6.93;;;22.50;55.00;;;;;;5057233;28;20550;-57
2023/07/22 10:01:09;;;;;;;7.20;6.50;;;22.40;55.00;;;;;;5058018;28;20440;-57
2023/07/22 10:03:39;;;;;;;10.13;6.40;;;22.40;55.50;;;;;;5056745;28;20498;-56
2023/07/22 10:06:07;;;;;;;9.93;6.50;;;22.50;55.60;;;;;;5058002;28;20440;-56
2023/07/22 10:08:36;;;;;;;7.80;7.00;;;22.50;55.60;;;;;;5056923;28;20804;-56
2023/07/22 10:11:08;;;;;;;8.83;7.10;;;22.50;55.70;;;;;;5056295;28;20440;-56
2023/07/22 10:13:35;;;;;;;8.50;6.30;;;22.50;56.20;;;;;;5057223;28;20471;-56
2023/07/22 10:16:03;;;;;;;6.70;6.10;;;22.60;56.20;;;;;;5057151;28;20533;-57
2023/07/22 10:18:31;;;;;;;6.23;5.50;;;22.70;55.80;;;;;;5056361;28;20500;-58
2023/07/22 10:20:59;;;;;;;7.80;6.27;;;22.80;55.00;;;;;;5056400;28;20938;-57
2023/07/22 10:23:27;;;;;;;5.40;4.83;;;22.90;54.60;;;;;;5057410;28;20632;-59
2023/07/22 10:25:54;;;;;;;5.90;4.80;;;22.90;54.40;;;;;;5056600;28;20448;-56
2023/07/22 10:28:23;;;;;;;5.03;4.53;;;23.00;54.10;;;;;;5058143;28;20475;-57
2023/07/22 10:30:50;;;;;;;6.33;5.30;;;23.10;54.00;;;;;;5058003;28;20452;-56
2023/07/22 10:33:18;;;;;;;6.13;5.23;;;23.10;53.80;;;;;;5056118;28;20476;-57
2023/07/22 10:36:03;;;;;;;7.03;4.87;;;23.10;53.60;;;;;;5056000;28;20448;-56
2023/07/22 10:38:30;;;;;;;6.90;5.10;;;23.10;53.40;;;;;;5056750;28;20478;-57
2023/07/22 10:40:57;;;;;;;6.70;4.40;;;22.90;53.60;;;;;;5056953;28;20524;-57
2023/07/22 10:43:27;;;;;;;9.60;4.60;;;22.60;52.70;;;;;;5056916;28;20432;-55
2023/07/22 10:45:56;;;;;;;4.77;4.20;;;22.20;52.50;;;;;;5055893;28;20918;-57
2023/07/22 10:48:27;;;;;;;5.70;4.50;;;21.70;53.10;;;;;;5056290;28;20460;-58
2023/07/22 10:50:55;;;;;;;5.33;4.83;;;21.30;55.20;;;;;;5055681;28;20483;-58
2023/07/22 10:53:30;;;;;;;6.00;4.90;;;21.00;56.80;;;;;;5056437;28;20563;-58
2023/07/22 10:56:06;;;;;;;5.93;3.83;;;20.80;57.20;;;;;;5056153;28;20435;-58
2023/07/22 10:58:55;;;;;;;5.40;4.30;;;21.00;57.30;;;;;;5055923;28;20472;-58
2023/07/22 11:01:27;;;;;;;5.90;4.17;;;21.40;56.80;;;;;;5055943;28;20853;-57
2023/07/22 11:04:30;;;;;;;6.37;3.53;;;21.90;55.10;;;;;;5055557;28;20425;-57
2023/07/22 11:06:58;;;;;;;7.10;4.50;;;22.50;54.00;;;;;;5055736;28;20489;-56
2023/07/22 11:09:39;;;;;;;3.90;3.50;;;22.90;53.20;;;;;;5055199;28;20974;-58
2023/07/22 11:12:07;;;;;;;4.20;3.40;;;23.00;52.00;;;;;;5055876;28;20479;-56
2023/07/22 11:14:38;;;;;;;5.10;3.40;;;22.80;51.40;;;;;;5055661;28;20482;-58
2023/07/22 11:17:07;;;;;;;4.63;4.20;;;22.40;51.50;;;;;;5055597;28;20921;-57
2023/07/22 11:19:35;;;;;;;5.53;4.43;;;22.10;52.00;;;;;;5056480;28;20501;-57
2023/07/22 11:22:02;;;;;;;5.47;4.80;;;22.00;52.40;;;;;;5055724;28;20441;-57
2023/07/22 11:24:29;;;;;;;3.90;3.37;;;21.90;52.50;;;;;;5055983;28;20455;-57
2023/07/22 11:26:56;;;;;;;5.03;3.90;;;22.00;52.70;;;;;;5055414;28;20449;-57
2023/07/22 11:29:23;;;;;;;4.80;3.50;;;22.10;52.50;;;;;;5055541;28;20494;-55
2023/07/22 11:31:52;;;;;;;4.80;4.23;;;22.00;52.30;;;;;;5055667;28;20464;-57
2023/07/22 11:34:20;;;;;;;7.17;3.67;;;22.00;52.30;;;;;;5056078;28;20535;-57
2023/07/22 11:36:48;;;;;;;6.00;4.00;;;21.80;52.50;;;;;;5054651;28;20929;-58
2023/07/22 11:39:16;;;;;;;5.93;3.77;;;21.70;53.00;;;;;;5055116;28;20460;-56
2023/07/22 11:41:43;;;;;;;7.43;4.60;;;21.50;53.50;;;;;;5055776;28;20527;-57
2023/07/22 11:44:13;;;;;;;4.77;4.17;;;21.40;53.80;;;;;;5055584;28;20527;-57
2023/07/22 11:46:48;;;;;;;5.80;4.97;;;21.30;54.20;;;;;;5055430;28;20946;-57
2023/07/22 11:49:23;;;;;;;5.20;4.30;;;21.40;54.30;;;;;;5055281;28;20460;-58
2023/07/22 11:51:51;;;;;;;4.90;4.10;;;21.60;54.20;;;;;;5056505;28;20448;-57
2023/07/22 11:54:18;;;;;;;6.80;4.10;;;21.80;54.00;;;;;;5055808;28;20563;-58
2023/07/22 11:56:44;;;;;;;5.77;4.53;;;21.90;53.80;;;;;;5056515;28;20474;-56
2023/07/22 11:59:11;;;;;;;5.13;3.70;;;22.00;54.10;;;;;;5057068;28;20479;-56
2023/07/22 12:01:38;;;;;;;5.53;4.17;;;22.00;53.10;;;;;;5058101;28;20512;-57
2023/07/22 12:04:11;;;;;;;5.40;4.40;;;22.00;53.00;;;;;;5057422;28;20435;-57
2023/07/22 12:06:40;;;;;;;8.07;4.90;;;21.80;53.00;;;;;;5057081;28;20428;-56
2023/07/22 12:09:08;;;;;;;6.20;5.20;;;21.70;53.90;;;;;;5055801;28;20831;-56
2023/07/22 12:11:35;;;;;;;5.90;4.40;;;21.60;53.60;;;;;;5054421;28;20532;-57
2023/07/22 12:14:10;;;;;;;7.97;6.20;;;21.60;53.80;;;;;;5054616;28;20580;-57
2023/07/22 12:16:38;;;;;;;5.50;4.90;;;21.50;54.10;;;;;;5055396;28;20978;-56
2023/07/22 12:19:05;;;;;;;5.90;5.30;;;21.60;54.40;;;;;;5054817;28;20482;-56
2023/07/22 12:21:32;;;;;;;7.10;4.93;;;21.70;54.40;;;;;;5054929;28;20452;-56
2023/07/22 12:24:01;;;;;;;7.50;4.70;;;21.80;54.40;;;;;;5055347;28;20455;-59
2023/07/22 12:26:28;;;;;;;4.80;4.17;;;21.90;54.30;;;;;;5054094;28;20448;-57
2023/07/22 12:28:55;;;;;;;7.13;5.17;;;22.20;53.90;;;;;;5054375;28;20467;-57
2023/07/22 12:31:22;;;;;;;6.63;5.03;;;22.50;52.90;;;;;;5053932;28;20529;-57
2023/07/22 12:33:49;;;;;;;5.77;4.90;;;22.70;52.20;;;;;;5057390;28;20483;-57
2023/07/22 12:36:16;;;;;;;5.23;4.73;;;23.20;51.50;;;;;;5057392;28;20934;-57
2023/07/22 12:38:43;;;;;;;4.67;4.23;;;23.60;50.50;;;;;;5057808;28;20502;-58
2023/07/22 12:41:11;;;;;;;5.43;4.50;;;23.90;49.70;;;;;;5058006;28;20521;-56
2023/07/22 12:43:38;;;;;;;4.93;4.43;;;23.90;49.30;;;;;;5058442;28;20444;-56
2023/07/22 12:46:05;;;;;;;5.40;4.77;;;23.90;49.40;;;;;;5057971;28;20452;-57
2023/07/22 12:48:32;;;;;;;6.87;5.93;;;23.80;49.50;;;;;;5058105;28;21007;-57
2023/07/22 12:50:59;;;;;;;6.77;4.90;;;23.80;49.60;;;;;;5057692;28;20941;-57